Terminal Aerodrome Forecast
Issued by NWS

Home | Current Version | Previous Version | Text Only | Print | Product List | Glossary On
Versions: 1 2 3 4 5 6 7 8 9 10 11 12 13 14 15
000
FTUS46 KPDT 270500
TAFRDM
TAF
KRDM 270524Z 2706/2806 18011KT P6SM BKN150
     FM271200 18012G19KT P6SM BKN080
     FM272000 21011KT P6SM -SHRA BKN060 OVC080
     FM280300 21008KT P6SM -RA OVC050=

USA.gov is the U.S. government's official web portal to all federal, state and local government web resources and services.